Detall de PIREP

Printer-friendly versionPDF version

[2015/08/08 06:58:00]
Flight IATA:CT0001
Pilot Number:041
Company ICAO:CAT
Aircraft Type:C172/A
PAX:2
Departing Airport: LEGE
Destination Airport: LELC
Alternate Airport:LEVC
Online: VATSIM
Route:MAMUK H110 SEROX A34 ALT
Flight Level:FL90
No Slew and time accel
No pause
Crash detect
Detect pilot in Cockpit between each 30 and 45 minutes
06:58 Zero fuel Weight: 2010 Lbs, Fuel Weight: 335 Lbs
06:58 VATSIM:LEGE 080630Z 00000KT CAVOK 23/21 Q1017
06:58 VATSIM:LELC 080600Z 35005KT CAVOK 27/22 Q1015 NOSIG
06:58 VOICE CATALONIAN
07:01 Parking Brakes off
07:04 Take-off
07:04 Take off Weight: 2344 Lbs
07:04 Wind: 284º @ 002 Knots Heading: 015º
07:04 POS N41º 54´ 05´´ E002º 45´ 38´´
07:04 Flaps:1 at 72 Knots
07:05 Flaps:0 at 70 Knots
07:19 Wind:291º@011 Knots Heading: 266º Ground Speed: 065 Knots Altitude 6824 ft
07:24 TOC
07:24 Fuel Weight: 319 Lb
07:34 Wind:295º@023 Knots Heading: 266º Ground Speed: 082 Knots Altitude 9160 ft
07:49 Wind:295º@023 Knots Heading: 266º Ground Speed: 083 Knots Altitude 9124 ft
08:04 Wind:290º@019 Knots Heading: 254º Ground Speed: 088 Knots Altitude 9124 ft
08:19 Wind:290º@019 Knots Heading: 245º Ground Speed: 098 Knots Altitude 9137 ft
08:34 Wind:290º@019 Knots Heading: 200º Ground Speed: 105 Knots Altitude 9222 ft
08:49 Wind:290º@019 Knots Heading: 206º Ground Speed: 105 Knots Altitude 9192 ft
09:04 Wind:269º@017 Knots Heading: 205º Ground Speed: 102 Knots Altitude 9110 ft
09:19 Wind:269º@017 Knots Heading: 206º Ground Speed: 097 Knots Altitude 9078 ft
09:34 Wind:269º@016 Knots Heading: 205º Ground Speed: 097 Knots Altitude 9051 ft
09:49 Wind:269º@017 Knots Heading: 191º Ground Speed: 114 Knots Altitude 9084 ft
10:04 Wind:255º@005 Knots Heading: 186º Ground Speed: 103 Knots Altitude 9074 ft
10:06 TOD
10:06 Fuel Weight: 215 Lb
10:19 Wind:138º@001 Knots Heading: 180º Ground Speed: 110 Knots Altitude 3979 ft
10:34 Wind:138º@001 Knots Heading: 176º Ground Speed: 104 Knots Altitude 2998 ft
10:49 Wind:138º@001 Knots Heading: 258º Ground Speed: 105 Knots Altitude 3005 ft
11:00 Flaps:1 at 83 Knots
11:01 Flaps:2 at 78 Knots
11:03 Flaps:3 at 70 Knots
11:04 Wind:043º@011 Knots Heading: 041º Ground Speed: 054 Knots Altitude 324 ft
11:05 TouchDown:Rate -60 ft/min Speed: 59 Knots
11:05 Flaps:0 at 51 Knots
11:05 VATSIM:LELC 081000Z 06007KT 020V110 9999 FEW013 31/25 Q1017 NOSIG
11:05 Land
11:05 Wind:043º@011 Knots
11:05 Heading: 044º
11:05 Flight Duration: 04:01
11:05 Landing Weight: 2186 Lbs
11:05 POS N37º 46´ 15´´ W000º 49´ 02´´
11:06 Parking brakes on
11:06 Block to Block Duration: 04:05
11:06 Final Fuel: 176 Lbls
11:06 Spent Fuel: 158 Lbls
11:06 Flight Length: 391 NM
11:06 TOD Land Length: 100 NM

Exportar CSV

Powered by Drupal - Modified by Danger4k